Time;durP1;ratioP1;P1;durP2;ratioP2;P2;SDS_P1;SDS_P2;PMS_P1;PMS_P2;Temp;Humidity;BMP_temperature;BMP_pressure;BME280_temperature;BME280_humidity;BME280_pressure;Samples;Min_cycle;Max_cycle;Signal;HPM_P1;HPM_P2
2023/03/28 05:03:45;;;;;;;;;5.50;3.00;;;;;;;;4869828;22;51140;-68
2023/03/28 05:06:10;;;;;;;;;5.25;3.50;;;;;;;;5031828;28;49677;-74
2023/03/28 05:08:36;;;;;;;;;6.00;6.00;;;;;;;;5026891;28;50011;-75
2023/03/28 05:11:01;;;;;;;;;5.75;5.00;;;;;;;;5027021;28;50645;-74
2023/03/28 05:13:26;;;;;;;;;3.00;3.00;;;;;;;;5028949;28;49836;-73
2023/03/28 05:15:51;;;;;;;;;2.25;2.25;;;;;;;;5027457;28;50293;-74
2023/03/28 05:18:16;;;;;;;;;3.00;3.00;;;;;;;;5028566;28;50029;-74
2023/03/28 05:20:42;;;;;;;;;6.00;6.00;;;;;;;;5028003;28;49930;-75
2023/03/28 05:23:07;;;;;;;;;9.00;6.00;;;;;;;;5023304;28;49736;-74
2023/03/28 05:25:33;;;;;;;;;4.50;4.00;;;;;;;;5028840;28;49761;-72
2023/03/28 05:27:58;;;;;;;;;5.00;5.00;;;;;;;;5003352;28;50063;-74
2023/03/28 05:30:23;;;;;;;;;7.25;6.00;;;;;;;;5022299;28;50392;-74
2023/03/28 05:32:48;;;;;;;;;5.75;3.50;;;;;;;;5026165;28;49745;-74
2023/03/28 05:35:14;;;;;;;;;3.00;3.00;;;;;;;;5010933;28;49827;-74
2023/03/28 05:37:40;;;;;;;;;5.25;5.00;;;;;;;;5029868;28;49906;-74
2023/03/28 05:40:06;;;;;;;;;6.75;6.75;;;;;;;;5029044;28;50165;-74
2023/03/28 05:42:32;;;;;;;;;5.00;4.50;;;;;;;;5029274;28;49909;-75
2023/03/28 05:44:57;;;;;;;;;7.00;7.00;;;;;;;;5011260;28;49906;-75
2023/03/28 05:47:22;;;;;;;;;10.00;7.75;;;;;;;;5029446;28;50130;-74
2023/03/28 05:49:48;;;;;;;;;5.00;5.00;;;;;;;;5028989;28;50855;-73
2023/03/28 05:52:13;;;;;;;;;8.50;7.50;;;;;;;;5027468;28;49701;-73
2023/03/28 05:54:38;;;;;;;;;5.25;5.25;;;;;;;;5027370;28;49993;-70
2023/03/28 05:57:03;;;;;;;;;5.50;5.50;;;;;;;;5029246;28;49876;-71
2023/03/28 05:59:28;;;;;;;;;7.00;6.75;;;;;;;;5010922;28;51474;-71
2023/03/28 06:01:54;;;;;;;;;7.50;6.75;;;;;;;;5028505;28;49710;-71
2023/03/28 06:04:20;;;;;;;;;5.75;5.75;;;;;;;;5039059;28;49835;-69
2023/03/28 06:06:47;;;;;;;;;6.00;5.00;;;;;;;;5010850;28;50035;-69
2023/03/28 06:09:12;;;;;;;;;10.25;8.00;;;;;;;;5025123;28;50836;-70
2023/03/28 06:11:38;;;;;;;;;7.75;6.00;;;;;;;;5027861;28;49835;-72
2023/03/28 06:14:03;;;;;;;;;11.00;9.25;;;;;;;;5028811;28;49789;-69
2023/03/28 06:16:28;;;;;;;;;10.25;8.50;;;;;;;;5028937;28;49968;-69
2023/03/28 06:18:53;;;;;;;;;9.00;8.00;;;;;;;;5023554;28;50772;-68
2023/03/28 06:21:19;;;;;;;;;7.50;6.75;;;;;;;;5017195;28;49717;-68
2023/03/28 06:23:44;;;;;;;;;7.50;7.00;;;;;;;;5017928;28;49997;-69
2023/03/28 06:26:10;;;;;;;;;7.00;7.00;;;;;;;;5019239;28;50075;-69
2023/03/28 06:28:35;;;;;;;;;4.50;4.50;;;;;;;;5019294;28;50470;-69
2023/03/28 06:31:00;;;;;;;;;10.75;7.75;;;;;;;;5018841;28;49759;-69
2023/03/28 06:33:25;;;;;;;;;10.75;7.75;;;;;;;;5020120;28;50222;-69
2023/03/28 06:35:50;;;;;;;;;9.00;7.25;;;;;;;;5023696;28;50206;-69
2023/03/28 06:38:16;;;;;;;;;7.50;7.00;;;;;;;;5023196;28;51053;-69
2023/03/28 06:40:41;;;;;;;;;10.00;4.25;;;;;;;;5026153;28;49957;-67
2023/03/28 06:43:06;;;;;;;;;10.75;7.75;;;;;;;;5023411;28;49728;-68
2023/03/28 06:45:31;;;;;;;;;5.75;5.75;;;;;;;;5023573;28;50734;-67
2023/03/28 06:47:56;;;;;;;;;6.00;5.00;;;;;;;;5023522;28;50383;-68
2023/03/28 06:50:22;;;;;;;;;7.75;6.25;;;;;;;;5022872;28;50137;-66
2023/03/28 06:52:47;;;;;;;;;6.75;6.75;;;;;;;;5005613;28;50165;-66
2023/03/28 06:55:12;;;;;;;;;7.50;6.00;;;;;;;;5004276;28;49765;-66
2023/03/28 06:57:37;;;;;;;;;6.75;6.75;;;;;;;;5022543;28;50513;-67
2023/03/28 07:00:03;;;;;;;;;10.75;8.50;;;;;;;;5022582;28;50218;-66
2023/03/28 07:02:28;;;;;;;;;3.25;3.25;;;;;;;;5022650;28;49891;-67
2023/03/28 07:04:54;;;;;;;;;6.25;5.25;;;;;;;;5021797;28;50161;-66
2023/03/28 07:07:21;;;;;;;;;7.75;6.00;;;;;;;;5004404;28;50708;-66
2023/03/28 07:09:48;;;;;;;;;10.50;7.75;;;;;;;;5023249;28;49761;-66
2023/03/28 07:12:13;;;;;;;;;7.00;7.00;;;;;;;;5022120;28;49955;-66
2023/03/28 07:14:41;;;;;;;;;10.25;5.25;;;;;;;;5023040;28;50070;-66
2023/03/28 07:17:06;;;;;;;;;7.50;6.25;;;;;;;;5021768;28;51760;-67
2023/03/28 07:19:32;;;;;;;;;8.25;8.25;;;;;;;;5022061;28;50159;-68
2023/03/28 07:21:57;;;;;;;;;7.50;7.25;;;;;;;;5022133;28;49867;-67
2023/03/28 07:24:22;;;;;;;;;7.00;7.00;;;;;;;;5023056;28;49747;-67
2023/03/28 07:26:47;;;;;;;;;8.25;6.00;;;;;;;;5022802;28;50486;-68
2023/03/28 07:29:12;;;;;;;;;11.25;11.25;;;;;;;;5021802;28;49974;-68
2023/03/28 07:31:38;;;;;;;;;8.00;6.00;;;;;;;;5020195;28;50898;-67
2023/03/28 07:34:03;;;;;;;;;14.50;13.00;;;;;;;;5027622;28;49708;-68
2023/03/28 07:36:28;;;;;;;;;17.50;14.50;;;;;;;;5030854;28;49918;-69
2023/03/28 07:38:53;;;;;;;;;14.50;14.00;;;;;;;;5030893;28;49707;-67
2023/03/28 07:41:18;;;;;;;;;9.25;9.00;;;;;;;;5031076;28;50056;-68
2023/03/28 07:43:44;;;;;;;;;10.75;8.75;;;;;;;;5031044;28;49896;-68
2023/03/28 07:46:10;;;;;;;;;12.25;10.00;;;;;;;;5029464;28;50106;-68
2023/03/28 07:48:36;;;;;;;;;8.00;8.00;;;;;;;;5030286;28;50125;-67
2023/03/28 07:51:03;;;;;;;;;11.50;7.75;;;;;;;;5030824;28;50284;-67
2023/03/28 07:53:28;;;;;;;;;9.00;9.00;;;;;;;;5030793;28;50058;-67
2023/03/28 07:55:53;;;;;;;;;8.75;8.25;;;;;;;;5030348;28;50324;-68
2023/03/28 07:58:19;;;;;;;;;7.00;7.00;;;;;;;;5030494;28;49756;-68
2023/03/28 08:00:44;;;;;;;;;6.75;6.00;;;;;;;;5012820;28;49752;-68
2023/03/28 08:03:10;;;;;;;;;9.75;8.75;;;;;;;;5030960;28;49977;-70
2023/03/28 08:05:36;;;;;;;;;7.50;7.50;;;;;;;;5029225;28;51388;-68
2023/03/28 08:08:02;;;;;;;;;11.00;8.00;;;;;;;;5030607;28;50138;-68
2023/03/28 08:10:27;;;;;;;;;7.25;6.50;;;;;;;;5043644;28;49728;-68
2023/03/28 08:12:52;;;;;;;;;8.50;6.50;;;;;;;;5030391;28;49708;-68
2023/03/28 08:15:18;;;;;;;;;10.75;10.75;;;;;;;;5030265;28;49966;-74
2023/03/28 08:17:43;;;;;;;;;6.75;6.75;;;;;;;;5030573;28;49844;-68
2023/03/28 08:20:09;;;;;;;;;10.00;9.00;;;;;;;;5012323;28;50274;-68
2023/03/28 08:22:35;;;;;;;;;7.75;7.25;;;;;;;;5012019;28;50082;-68
2023/03/28 08:25:00;;;;;;;;;10.25;9.25;;;;;;;;5026963;28;50766;-67
2023/03/28 08:27:25;;;;;;;;;9.00;9.00;;;;;;;;5028479;28;49994;-66
2023/03/28 08:29:51;;;;;;;;;7.50;7.00;;;;;;;;5025777;28;49928;-67
2023/03/28 08:32:16;;;;;;;;;6.75;5.50;;;;;;;;5011053;28;49782;-68
2023/03/28 08:34:41;;;;;;;;;6.50;6.50;;;;;;;;5027520;28;50399;-69
2023/03/28 08:37:07;;;;;;;;;8.75;8.75;;;;;;;;5030007;28;51050;-69
2023/03/28 08:39:33;;;;;;;;;7.50;6.75;;;;;;;;5025628;28;50626;-69
2023/03/28 08:42:17;;;;;;;;;8.50;8.50;;;;;;;;5026755;28;49919;-68
2023/03/28 08:44:42;;;;;;;;;5.25;5.25;;;;;;;;5023713;28;50628;-68
2023/03/28 08:47:13;;;;;;;;;7.50;6.00;;;;;;;;5023196;28;49851;-68
2023/03/28 08:49:46;;;;;;;;;9.25;9.25;;;;;;;;5026812;28;50860;-69
2023/03/28 08:52:14;;;;;;;;;6.50;3.25;;;;;;;;5022833;28;50061;-68
2023/03/28 08:54:44;;;;;;;;;9.00;8.00;;;;;;;;5016803;28;50485;-68
2023/03/28 08:57:15;;;;;;;;;4.50;4.00;;;;;;;;5015485;28;49833;-69
2023/03/28 08:59:43;;;;;;;;;7.50;7.50;;;;;;;;5023864;28;50185;-69
2023/03/28 09:02:14;;;;;;;;;2.00;2.00;;;;;;;;5028028;28;50168;-70
2023/03/28 09:04:40;;;;;;;;;7.00;7.00;;;;;;;;5020431;28;50138;-70
2023/03/28 09:07:18;;;;;;;;;5.00;5.00;;;;;;;;5007536;28;50277;-71
2023/03/28 09:10:03;;;;;;;;;9.25;6.25;;;;;;;;5034609;28;50253;-69
2023/03/28 09:12:36;;;;;;;;;6.50;6.50;;;;;;;;5027447;28;49653;-70
2023/03/28 09:15:05;;;;;;;;;5.50;4.75;;;;;;;;5028792;28;49768;-70
2023/03/28 09:17:39;;;;;;;;;9.00;5.50;;;;;;;;5028686;28;49759;-70
2023/03/28 09:20:12;;;;;;;;;3.25;3.00;;;;;;;;5028216;28;49984;-69
2023/03/28 09:23:07;;;;;;;;;4.25;4.25;;;;;;;;5029421;28;50119;-72
2023/03/28 09:25:32;;;;;;;;;8.25;5.25;;;;;;;;5007381;28;50689;-71
2023/03/28 09:28:00;;;;;;;;;4.00;4.00;;;;;;;;5027021;28;50072;-71
2023/03/28 09:30:38;;;;;;;;;6.00;3.50;;;;;;;;5028203;28;49706;-72
2023/03/28 09:33:10;;;;;;;;;3.25;3.25;;;;;;;;5033899;28;50070;-67
2023/03/28 09:35:35;;;;;;;;;3.00;3.00;;;;;;;;5027837;28;50006;-68
2023/03/28 09:38:21;;;;;;;;;4.25;4.25;;;;;;;;5029062;28;49971;-70
2023/03/28 09:40:48;;;;;;;;;6.25;6.25;;;;;;;;5027270;28;49775;-67
2023/03/28 09:43:34;;;;;;;;;2.00;2.00;;;;;;;;5004565;28;49996;-69
2023/03/28 09:46:03;;;;;;;;;4.50;4.50;;;;;;;;5025141;28;49830;-67
2023/03/28 09:48:33;;;;;;;;;8.00;5.00;;;;;;;;5028514;28;49746;-69
2023/03/28 09:50:59;;;;;;;;;5.50;5.50;;;;;;;;5028930;28;50180;-70
2023/03/28 09:53:26;;;;;;;;;9.00;5.00;;;;;;;;5029049;28;50000;-68
2023/03/28 09:55:52;;;;;;;;;6.00;5.00;;;;;;;;5028071;28;51062;-86
2023/03/28 09:58:18;;;;;;;;;3.00;3.00;;;;;;;;5026812;28;49926;-69
2023/03/28 10:00:47;;;;;;;;;5.25;5.25;;;;;;;;5040408;28;49814;-69
2023/03/28 10:03:31;;;;;;;;;8.00;6.25;;;;;;;;5010130;28;49778;-72
2023/03/28 10:05:57;;;;;;;;;4.00;3.25;;;;;;;;5022963;28;50367;-68
2023/03/28 10:08:33;;;;;;;;;5.50;5.50;;;;;;;;5028630;28;49841;-71
2023/03/28 10:11:05;;;;;;;;;13.50;11.25;;;;;;;;5027577;28;50026;-71
2023/03/28 10:13:40;;;;;;;;;16.75;14.75;;;;;;;;5024649;28;50069;-71
2023/03/28 10:16:06;;;;;;;;;3.25;3.00;;;;;;;;5024109;28;49814;-71
2023/03/28 10:18:32;;;;;;;;;5.00;3.25;;;;;;;;5028308;28;49835;-72
2023/03/28 10:21:02;;;;;;;;;4.50;4.00;;;;;;;;5027908;28;49828;-72
2023/03/28 10:23:28;;;;;;;;;3.00;3.00;;;;;;;;5029154;28;50113;-69
2023/03/28 10:25:53;;;;;;;;;3.00;3.00;;;;;;;;5022579;28;49859;-70
2023/03/28 10:28:26;;;;;;;;;3.00;3.00;;;;;;;;5029735;28;50129;-69
2023/03/28 10:30:53;;;;;;;;;2.00;2.00;;;;;;;;5022562;28;50015;-73
2023/03/28 10:33:21;;;;;;;;;4.50;3.00;;;;;;;;5024963;28;49785;-72
2023/03/28 10:35:46;;;;;;;;;3.50;3.50;;;;;;;;5029058;28;50070;-71
2023/03/28 10:38:14;;;;;;;;;3.00;3.00;;;;;;;;5027332;28;49808;-69
2023/03/28 10:40:40;;;;;;;;;1.50;1.00;;;;;;;;5023883;28;49816;-71
2023/03/28 10:43:10;;;;;;;;;4.25;2.50;;;;;;;;5027687;28;50017;-69
2023/03/28 10:45:38;;;;;;;;;4.50;2.50;;;;;;;;5009688;28;51355;-69
2023/03/28 10:48:12;;;;;;;;;2.00;2.00;;;;;;;;5028101;28;49847;-69
2023/03/28 10:50:51;;;;;;;;;3.25;3.00;;;;;;;;5024859;28;49814;-69
2023/03/28 10:53:16;;;;;;;;;2.00;2.00;;;;;;;;5027627;28;49742;-70
2023/03/28 10:55:50;;;;;;;;;1.75;1.75;;;;;;;;5027347;28;49787;-70
2023/03/28 10:58:27;;;;;;;;;1.75;1.75;;;;;;;;5028114;28;50092;-72
2023/03/28 11:01:12;;;;;;;;;2.00;2.00;;;;;;;;5033124;28;50259;-72
2023/03/28 11:03:54;;;;;;;;;1.00;1.00;;;;;;;;5026324;28;50037;-72
2023/03/28 11:06:45;;;;;;;;;1.75;1.75;;;;;;;;5027988;28;50178;-73
2023/03/28 11:09:33;;;;;;;;;5.50;4.00;;;;;;;;5027522;28;49711;-71
2023/03/28 11:12:16;;;;;;;;;3.25;2.00;;;;;;;;5019767;28;50125;-70
2023/03/28 11:14:41;;;;;;;;;2.50;2.25;;;;;;;;5028097;28;49858;-73
2023/03/28 11:17:12;;;;;;;;;2.00;2.00;;;;;;;;5027231;28;50952;-71
2023/03/28 11:19:47;;;;;;;;;3.00;3.00;;;;;;;;5024649;28;50064;-71
2023/03/28 11:22:23;;;;;;;;;1.25;1.25;;;;;;;;5029369;28;50153;-71
2023/03/28 11:24:53;;;;;;;;;2.00;2.00;;;;;;;;5030350;28;49653;-72
2023/03/28 11:27:27;;;;;;;;;2.50;2.50;;;;;;;;5025115;28;49725;-72
2023/03/28 11:30:01;;;;;;;;;3.00;3.00;;;;;;;;5030237;28;50022;-71
2023/03/28 11:32:46;;;;;;;;;3.00;2.50;;;;;;;;5031275;28;50002;-72
2023/03/28 11:35:12;;;;;;;;;4.25;3.25;;;;;;;;5018590;28;50466;-72
2023/03/28 11:37:40;;;;;;;;;5.75;4.50;;;;;;;;5047610;28;50594;-72
2023/03/28 11:40:19;;;;;;;;;1.75;1.75;;;;;;;;5040054;28;49896;-72
2023/03/28 11:42:50;;;;;;;;;3.75;3.50;;;;;;;;5031152;28;49876;-73
2023/03/28 11:45:23;;;;;;;;;4.50;3.25;;;;;;;;5031438;28;50438;-73
2023/03/28 11:48:04;;;;;;;;;4.00;4.00;;;;;;;;5029957;28;50518;-73
2023/03/28 11:50:41;;;;;;;;;3.00;3.00;;;;;;;;5031169;28;49749;-73
2023/03/28 11:53:13;;;;;;;;;4.00;4.00;;;;;;;;5031203;28;50225;-73
2023/03/28 11:55:43;;;;;;;;;4.25;3.75;;;;;;;;5028103;28;50164;-73
2023/03/28 11:58:20;;;;;;;;;4.25;3.00;;;;;;;;5028278;28;50966;-71
2023/03/28 12:00:50;;;;;;;;;5.00;4.50;;;;;;;;5029501;28;49945;-74
2023/03/28 12:03:35;;;;;;;;;3.00;3.00;;;;;;;;5030493;28;49651;-75
2023/03/28 12:06:20;;;;;;;;;4.50;4.50;;;;;;;;5030266;28;49733;-72
2023/03/28 12:08:48;;;;;;;;;3.00;3.00;;;;;;;;5026739;28;50530;-74
2023/03/28 12:11:16;;;;;;;;;4.75;4.00;;;;;;;;5029277;28;50150;-73
2023/03/28 12:13:45;;;;;;;;;3.00;3.00;;;;;;;;5030381;28;49891;-72
2023/03/28 12:16:13;;;;;;;;;3.00;3.00;;;;;;;;5030165;28;50024;-69
2023/03/28 12:18:56;;;;;;;;;5.25;3.00;;;;;;;;5029612;28;51007;-70
2023/03/28 12:21:29;;;;;;;;;4.00;3.50;;;;;;;;5030776;28;50188;-70
2023/03/28 12:24:13;;;;;;;;;4.25;4.25;;;;;;;;5030148;28;49744;-71
2023/03/28 12:26:58;;;;;;;;;8.25;5.50;;;;;;;;5026714;28;50097;-80
2023/03/28 12:29:42;;;;;;;;;4.50;4.50;;;;;;;;5039061;28;50341;-74
2023/03/28 12:32:25;;;;;;;;;3.50;3.00;;;;;;;;5029144;28;49747;-74
2023/03/28 12:34:51;;;;;;;;;4.50;4.50;;;;;;;;5027442;28;50196;-77
2023/03/28 12:37:16;;;;;;;;;5.00;5.00;;;;;;;;5026972;28;49936;-74
2023/03/28 12:39:53;;;;;;;;;4.00;4.00;;;;;;;;5028960;28;50389;-74
2023/03/28 12:42:20;;;;;;;;;5.00;3.50;;;;;;;;5012381;28;49669;-73
2023/03/28 12:44:49;;;;;;;;;4.75;4.00;;;;;;;;5031483;28;49784;-73
2023/03/28 12:47:17;;;;;;;;;3.50;3.50;;;;;;;;5029598;28;49797;-74
2023/03/28 12:49:46;;;;;;;;;3.00;3.00;;;;;;;;5028607;28;51077;-78
2023/03/28 12:52:18;;;;;;;;;3.00;3.00;;;;;;;;5032651;28;49856;-77
2023/03/28 12:54:59;;;;;;;;;3.25;3.25;;;;;;;;5029416;28;49754;-76
2023/03/28 12:57:39;;;;;;;;;3.25;3.25;;;;;;;;5029062;28;49787;-76
2023/03/28 13:00:16;;;;;;;;;2.00;2.00;;;;;;;;5029274;28;50013;-76
2023/03/28 13:02:50;;;;;;;;;3.75;2.25;;;;;;;;5026867;28;50866;-75
2023/03/28 13:05:18;;;;;;;;;3.75;3.50;;;;;;;;5029921;28;49703;-76
2023/03/28 13:08:02;;;;;;;;;4.00;3.25;;;;;;;;5029285;28;49806;-77
2023/03/28 13:10:27;;;;;;;;;3.25;2.00;;;;;;;;5030114;28;49785;-77
2023/03/28 13:12:52;;;;;;;;;2.50;2.50;;;;;;;;5030630;28;49940;-77
2023/03/28 13:15:17;;;;;;;;;5.25;4.25;;;;;;;;5029102;28;50136;-77
2023/03/28 13:17:46;;;;;;;;;2.00;2.00;;;;;;;;5028011;28;49699;-76
2023/03/28 13:20:14;;;;;;;;;2.00;2.00;;;;;;;;5029556;28;50568;-76
2023/03/28 13:22:56;;;;;;;;;3.00;2.50;;;;;;;;5028904;28;49763;-77
2023/03/28 13:25:25;;;;;;;;;4.25;3.75;;;;;;;;5030068;28;49806;-76
2023/03/28 13:28:16;;;;;;;;;3.25;3.00;;;;;;;;5034694;28;49732;-76
2023/03/28 13:30:43;;;;;;;;;1.00;1.00;;;;;;;;4997837;28;50196;-76
2023/03/28 13:33:20;;;;;;;;;2.75;2.50;;;;;;;;5032805;28;50096;-76
2023/03/28 13:35:45;;;;;;;;;2.25;2.25;;;;;;;;5034039;28;49720;-75
2023/03/28 13:38:19;;;;;;;;;1.25;1.25;;;;;;;;5029272;28;49796;-75
2023/03/28 13:40:50;;;;;;;;;2.50;2.00;;;;;;;;5029124;28;50554;-75
2023/03/28 13:43:22;;;;;;;;;3.50;3.00;;;;;;;;5028030;28;50228;-78
2023/03/28 13:45:53;;;;;;;;;2.00;2.00;;;;;;;;5031701;28;49903;-78
2023/03/28 13:48:20;;;;;;;;;3.25;2.00;;;;;;;;5027779;28;49990;-77
2023/03/28 13:50:47;;;;;;;;;3.00;2.25;;;;;;;;5029659;28;50883;-77
2023/03/28 13:53:12;;;;;;;;;1.00;1.00;;;;;;;;5029166;28;49735;-78
2023/03/28 13:55:37;;;;;;;;;2.50;2.50;;;;;;;;5028600;28;50115;-79
2023/03/28 13:58:02;;;;;;;;;3.00;3.00;;;;;;;;5029089;28;50069;-77
2023/03/28 14:00:29;;;;;;;;;2.75;2.75;;;;;;;;5028836;28;49962;-77
2023/03/28 14:03:02;;;;;;;;;2.00;2.00;;;;;;;;5028326;28;49849;-76
2023/03/28 14:05:31;;;;;;;;;3.75;3.25;;;;;;;;5028654;28;50132;-77
2023/03/28 14:08:02;;;;;;;;;2.00;2.00;;;;;;;;5033132;28;49610;-77
2023/03/28 14:10:30;;;;;;;;;2.00;1.75;;;;;;;;5030837;28;49860;-78
2023/03/28 14:12:57;;;;;;;;;4.00;4.00;;;;;;;;5028743;28;50866;-78
2023/03/28 14:15:23;;;;;;;;;2.00;2.00;;;;;;;;5027976;28;49766;-78
2023/03/28 14:17:49;;;;;;;;;2.00;2.00;;;;;;;;5035216;28;49949;-78
2023/03/28 14:20:16;;;;;;;;;2.25;2.25;;;;;;;;5036043;28;50813;-79
2023/03/28 14:22:43;;;;;;;;;3.00;3.00;;;;;;;;5028980;28;50033;-78
2023/03/28 14:25:12;;;;;;;;;3.25;2.00;;;;;;;;5029332;28;49871;-86
2023/03/28 14:27:39;;;;;;;;;1.75;1.75;;;;;;;;5029958;28;49792;-81
2023/03/28 14:30:22;;;;;;;;;7.00;7.00;;;;;;;;5025853;28;49706;-86
2023/03/28 14:32:53;;;;;;;;;5.75;4.50;;;;;;;;5028651;28;49764;-81
2023/03/28 14:35:20;;;;;;;;;2.25;2.25;;;;;;;;5028099;28;50108;-84
2023/03/28 14:37:50;;;;;;;;;1.75;0.75;;;;;;;;5028051;28;50029;-85
2023/03/28 14:40:38;;;;;;;;;2.00;2.00;;;;;;;;5033140;28;50397;-81
2023/03/28 14:43:05;;;;;;;;;2.25;1.25;;;;;;;;5019654;28;49690;-85
2023/03/28 14:45:33;;;;;;;;;3.00;2.00;;;;;;;;5033695;28;49781;-83
2023/03/28 14:47:58;;;;;;;;;2.50;1.50;;;;;;;;5028544;28;49773;-86
2023/03/28 14:50:25;;;;;;;;;1.50;1.50;;;;;;;;4998868;28;52444;-88
2023/03/28 14:52:50;;;;;;;;;0.00;0.00;;;;;;;;5028228;28;49901;-87
2023/03/28 14:55:20;;;;;;;;;0.25;0.25;;;;;;;;5028566;28;50800;-86
2023/03/28 14:57:48;;;;;;;;;2.00;1.00;;;;;;;;5035339;28;49965;-82
2023/03/28 15:00:15;;;;;;;;;1.75;1.25;;;;;;;;5043013;28;50127;-81
2023/03/28 15:02:40;;;;;;;;;1.25;1.00;;;;;;;;5031939;28;50137;-82
2023/03/28 15:05:11;;;;;;;;;2.00;2.00;;;;;;;;5033072;28;50097;-85
2023/03/28 15:07:36;;;;;;;;;2.00;1.00;;;;;;;;5033726;28;50041;-84
2023/03/28 15:10:12;;;;;;;;;3.25;1.75;;;;;;;;5031438;28;50539;-85
2023/03/28 15:12:43;;;;;;;;;3.00;1.50;;;;;;;;5032203;28;49820;-88
2023/03/28 15:15:13;;;;;;;;;0.75;0.75;;;;;;;;5025240;28;49734;-83
2023/03/28 15:17:38;;;;;;;;;2.50;2.50;;;;;;;;5031736;28;50033;-84
2023/03/28 15:20:04;;;;;;;;;2.00;2.00;;;;;;;;5009124;28;50754;-82
2023/03/28 15:22:30;;;;;;;;;1.00;1.00;;;;;;;;5031350;28;49720;-83
2023/03/28 15:24:56;;;;;;;;;2.00;1.00;;;;;;;;5028557;28;49909;-84
2023/03/28 15:27:30;;;;;;;;;2.00;2.00;;;;;;;;5032159;28;50014;-81
2023/03/28 15:29:56;;;;;;;;;3.50;3.00;;;;;;;;5031524;28;50148;-80
2023/03/28 15:32:21;;;;;;;;;1.00;1.00;;;;;;;;5031378;28;49750;-81
2023/03/28 15:34:53;;;;;;;;;0.75;0.75;;;;;;;;5028900;28;49795;-78
2023/03/28 15:37:20;;;;;;;;;1.00;1.00;;;;;;;;5024999;28;50190;-79
2023/03/28 15:39:49;;;;;;;;;0.00;0.00;;;;;;;;5032705;28;50508;-77
2023/03/28 15:42:17;;;;;;;;;2.25;2.25;;;;;;;;5029555;28;49749;-78
2023/03/28 15:44:45;;;;;;;;;2.25;2.00;;;;;;;;5031317;28;49845;-75
2023/03/28 15:47:13;;;;;;;;;0.75;0.75;;;;;;;;5030556;28;49694;-76
2023/03/28 15:49:38;;;;;;;;;1.00;1.00;;;;;;;;5026750;28;51651;-77
2023/03/28 15:52:13;;;;;;;;;2.25;2.25;;;;;;;;5030001;28;49840;-77
2023/03/28 15:54:42;;;;;;;;;1.00;1.00;;;;;;;;5028690;28;49720;-76
2023/03/28 15:57:09;;;;;;;;;1.00;1.00;;;;;;;;5035312;28;50110;-76
2023/03/28 15:59:39;;;;;;;;;0.25;0.25;;;;;;;;5029855;28;49718;-76
2023/03/28 16:02:16;;;;;;;;;2.50;2.00;;;;;;;;5041350;28;50108;-77
2023/03/28 16:04:55;;;;;;;;;4.00;2.00;;;;;;;;5030238;28;49898;-76
2023/03/28 16:07:20;;;;;;;;;1.00;1.00;;;;;;;;5028596;28;49949;-76
2023/03/28 16:09:46;;;;;;;;;1.50;1.50;;;;;;;;5010439;28;52478;-76
2023/03/28 16:12:12;;;;;;;;;2.50;2.00;;;;;;;;5030614;28;49751;-76
2023/03/28 16:14:39;;;;;;;;;0.75;0.75;;;;;;;;5030712;28;50137;-76
2023/03/28 16:17:06;;;;;;;;;1.75;1.75;;;;;;;;5010324;28;50042;-77
2023/03/28 16:19:32;;;;;;;;;4.00;0.00;;;;;;;;5029281;28;50575;-83
2023/03/28 16:21:57;;;;;;;;;1.00;1.00;;;;;;;;5039609;28;49822;-85
2023/03/28 16:24:22;;;;;;;;;1.75;1.75;;;;;;;;5032931;28;49905;-77
2023/03/28 16:26:48;;;;;;;;;2.75;2.75;;;;;;;;5030727;28;50414;-86
2023/03/28 16:29:13;;;;;;;;;2.00;2.00;;;;;;;;5040590;28;49669;-82
2023/03/28 16:31:38;;;;;;;;;2.00;1.00;;;;;;;;5030666;28;50023;-83
2023/03/28 16:34:03;;;;;;;;;2.00;2.00;;;;;;;;5030536;28;50353;-82
2023/03/28 16:36:29;;;;;;;;;1.75;1.75;;;;;;;;5030734;28;49646;-80
2023/03/28 16:38:54;;;;;;;;;1.50;1.50;;;;;;;;5030090;28;51108;-76
2023/03/28 16:41:20;;;;;;;;;2.50;1.00;;;;;;;;5027126;28;49844;-86
2023/03/28 16:43:45;;;;;;;;;3.75;2.25;;;;;;;;5017071;28;50061;-82
2023/03/28 16:46:10;;;;;;;;;1.75;1.75;;;;;;;;5013011;28;50002;-81
2023/03/28 16:48:36;;;;;;;;;2.25;2.25;;;;;;;;5003614;28;49847;-87
2023/03/28 16:51:05;;;;;;;;;2.00;2.00;;;;;;;;5031484;28;49638;-78
2023/03/28 16:53:34;;;;;;;;;2.50;2.00;;;;;;;;5036510;28;49830;-86
2023/03/28 16:56:00;;;;;;;;;2.75;2.50;;;;;;;;5029675;28;49968;-78
2023/03/28 16:58:26;;;;;;;;;2.00;1.25;;;;;;;;5027356;28;50497;-76
2023/03/28 17:00:51;;;;;;;;;2.75;2.00;;;;;;;;5029764;28;49772;-78
2023/03/28 17:03:16;;;;;;;;;4.00;1.00;;;;;;;;5029638;28;50309;-77
2023/03/28 17:05:42;;;;;;;;;2.00;2.00;;;;;;;;5029276;28;49704;-78
2023/03/28 17:08:07;;;;;;;;;1.25;1.00;;;;;;;;5017208;28;50744;-78
2023/03/28 17:10:33;;;;;;;;;3.00;1.00;;;;;;;;5029795;28;50060;-81
2023/03/28 17:13:01;;;;;;;;;1.50;1.50;;;;;;;;5029889;28;49860;-79
2023/03/28 17:15:26;;;;;;;;;3.25;2.00;;;;;;;;5042745;28;49951;-81
2023/03/28 17:17:51;;;;;;;;;1.50;1.50;;;;;;;;5029661;28;49739;-83
2023/03/28 17:20:17;;;;;;;;;1.25;0.75;;;;;;;;5024013;28;49705;-86
2023/03/28 17:22:42;;;;;;;;;3.00;2.50;;;;;;;;5029898;28;50093;-77
2023/03/28 17:25:08;;;;;;;;;2.25;2.25;;;;;;;;5029353;28;50090;-79
2023/03/28 17:27:33;;;;;;;;;4.50;3.00;;;;;;;;5028541;28;50937;-78
2023/03/28 17:29:58;;;;;;;;;3.00;2.00;;;;;;;;5028030;28;49986;-78
2023/03/28 17:32:23;;;;;;;;;2.75;2.75;;;;;;;;5029270;28;49736;-80
2023/03/28 17:34:49;;;;;;;;;3.00;3.00;;;;;;;;5030578;28;49947;-81
2023/03/28 17:37:14;;;;;;;;;2.00;2.00;;;;;;;;5028704;28;50635;-81
2023/03/28 17:39:39;;;;;;;;;2.00;2.00;;;;;;;;5028389;28;50225;-81
2023/03/28 17:42:05;;;;;;;;;2.75;2.75;;;;;;;;5030049;28;50440;-80
2023/03/28 17:44:31;;;;;;;;;2.75;2.25;;;;;;;;5013362;28;50469;-77
2023/03/28 17:46:56;;;;;;;;;3.00;1.00;;;;;;;;5033075;28;50382;-77
2023/03/28 17:49:22;;;;;;;;;1.00;1.00;;;;;;;;5025349;28;49922;-77
2023/03/28 17:51:48;;;;;;;;;2.50;2.00;;;;;;;;5030029;28;50031;-81
2023/03/28 17:54:13;;;;;;;;;3.75;3.75;;;;;;;;5014478;28;49804;-86
2023/03/28 17:56:39;;;;;;;;;4.00;4.00;;;;;;;;5035771;28;50261;-81
2023/03/28 17:59:04;;;;;;;;;4.75;4.75;;;;;;;;5011436;28;49851;-79
2023/03/28 18:01:29;;;;;;;;;4.50;2.00;;;;;;;;5029211;28;49809;-76
2023/03/28 18:03:54;;;;;;;;;4.75;3.75;;;;;;;;5029300;28;50424;-79
2023/03/28 18:06:20;;;;;;;;;4.00;4.00;;;;;;;;5028624;28;50682;-76
2023/03/28 18:08:45;;;;;;;;;3.00;3.00;;;;;;;;5029058;28;49790;-76
2023/03/28 18:11:13;;;;;;;;;3.75;3.75;;;;;;;;5029349;28;50081;-78
2023/03/28 18:13:38;;;;;;;;;3.00;3.00;;;;;;;;5034187;28;50000;-77
2023/03/28 18:16:05;;;;;;;;;4.25;3.50;;;;;;;;5028370;28;49983;-77
2023/03/28 18:18:30;;;;;;;;;3.25;3.00;;;;;;;;5027850;28;50235;-79
2023/03/28 18:20:56;;;;;;;;;3.00;3.00;;;;;;;;5022353;28;49714;-76
2023/03/28 18:23:22;;;;;;;;;3.00;3.00;;;;;;;;5029511;28;50133;-73
2023/03/28 18:25:49;;;;;;;;;3.25;3.25;;;;;;;;5028760;28;50497;-81
2023/03/28 18:28:14;;;;;;;;;5.25;5.00;;;;;;;;5029156;28;49836;-78
2023/03/28 18:30:40;;;;;;;;;4.75;4.75;;;;;;;;5035056;28;49887;-81
2023/03/28 18:33:06;;;;;;;;;6.00;4.50;;;;;;;;5020702;28;50839;-81
2023/03/28 18:35:31;;;;;;;;;4.25;4.00;;;;;;;;5031650;28;49780;-83
2023/03/28 18:37:57;;;;;;;;;5.25;4.25;;;;;;;;5031109;28;49742;-82
2023/03/28 18:40:22;;;;;;;;;6.25;6.25;;;;;;;;5029493;28;50328;-85
2023/03/28 18:42:48;;;;;;;;;3.50;3.50;;;;;;;;5032113;28;50126;-83
2023/03/28 18:45:13;;;;;;;;;3.25;3.25;;;;;;;;5034927;28;50381;-83
2023/03/28 18:47:39;;;;;;;;;8.00;3.75;;;;;;;;5035724;28;49946;-82
2023/03/28 18:50:05;;;;;;;;;6.75;5.00;;;;;;;;5037418;28;49950;-82
2023/03/28 18:52:30;;;;;;;;;6.00;6.00;;;;;;;;5032461;28;50064;-83
2023/03/28 18:54:56;;;;;;;;;3.50;3.50;;;;;;;;5031623;28;50982;-79
2023/03/28 18:57:21;;;;;;;;;4.25;4.00;;;;;;;;5031919;28;49649;-82
2023/03/28 18:59:51;;;;;;;;;4.00;4.00;;;;;;;;5030591;28;50155;-85
2023/03/28 19:02:16;;;;;;;;;5.00;4.75;;;;;;;;5031694;28;50038;-84
2023/03/28 19:04:42;;;;;;;;;5.00;5.00;;;;;;;;5033390;28;51093;-83
2023/03/28 19:07:07;;;;;;;;;4.00;4.00;;;;;;;;5032568;28;49780;-83
2023/03/28 19:09:32;;;;;;;;;5.75;5.75;;;;;;;;5031972;28;49881;-83
2023/03/28 19:11:57;;;;;;;;;5.00;5.00;;;;;;;;5037186;28;49812;-83
2023/03/28 19:14:22;;;;;;;;;5.00;4.50;;;;;;;;5031796;28;49858;-84
2023/03/28 19:16:48;;;;;;;;;5.00;5.00;;;;;;;;5031127;28;50161;-81
2023/03/28 19:19:14;;;;;;;;;9.25;5.00;;;;;;;;5013249;28;50010;-81
2023/03/28 19:21:39;;;;;;;;;7.50;5.75;;;;;;;;5031454;28;49654;-82
2023/03/28 19:24:04;;;;;;;;;5.00;5.00;;;;;;;;5031076;28;49747;-81
2023/03/28 19:26:29;;;;;;;;;6.75;6.75;;;;;;;;5030855;28;49821;-82
2023/03/28 19:28:54;;;;;;;;;1.50;1.00;;;;;;;;5030916;28;50423;-82
2023/03/28 19:31:24;;;;;;;;;4.00;4.00;;;;;;;;5012080;28;49925;-83
2023/03/28 19:33:49;;;;;;;;;8.75;8.00;;;;;;;;5030692;28;50870;-83
2023/03/28 19:36:15;;;;;;;;;8.50;7.00;;;;;;;;5032820;28;50388;-86
2023/03/28 19:38:40;;;;;;;;;6.75;6.75;;;;;;;;5030889;28;49860;-85
2023/03/28 19:41:07;;;;;;;;;2.50;2.50;;;;;;;;5024690;28;49972;-85
2023/03/28 19:43:32;;;;;;;;;7.75;7.75;;;;;;;;5032085;28;50900;-81
2023/03/28 19:46:05;;;;;;;;;11.50;9.00;;;;;;;;5039904;28;50040;-83
2023/03/28 19:48:30;;;;;;;;;10.25;10.25;;;;;;;;5030786;28;49840;-83
2023/03/28 19:50:56;;;;;;;;;6.00;6.00;;;;;;;;5035500;28;50083;-83